Time;durP1;ratioP1;P1;durP2;ratioP2;P2;SDS_P1;SDS_P2;PMS_P1;PMS_P2;Temp;Humidity;BMP_temperature;BMP_pressure;BME280_temperature;BME280_humidity;BME280_pressure;Samples;Min_cycle;Max_cycle;Signal;HPM_P1;HPM_P2
2023/01/31 00:00:01;;;;;;;;;;;;;;;5.81;76.33;102520.72;4972187;28;19918;-53
2023/01/31 00:02:26;;;;;;;;;;;;;;;5.81;76.22;102529.28;4967830;28;19933;-54
2023/01/31 00:04:51;;;;;;;;;;;;;;;5.81;76.11;102531.81;4966112;28;20448;-50
2023/01/31 00:07:17;;;;;;;;;;;;;;;5.80;76.18;102522.38;4973817;28;19926;-53
2023/01/31 00:09:42;;;;;;;;;;;;;;;5.80;76.22;102518.94;4965410;28;19922;-53
2023/01/31 00:12:07;;;;;;;;;;;;;;;5.79;76.24;102524.84;4972939;28;19982;-54
2023/01/31 00:14:32;;;;;;;;;;;;;;;5.79;76.30;102532.50;4971186;28;19930;-54
2023/01/31 00:16:57;;;;;;;;;;;;;;;5.77;76.24;102532.41;4982149;28;19985;-54
2023/01/31 00:19:23;;;;;;;;;;;;;;;5.73;76.31;102530.38;4970420;28;19926;-51
2023/01/31 00:21:48;;;;;;;;;;;;;;;5.71;76.31;102531.06;4969643;28;19930;-54
2023/01/31 00:24:13;;;;;;;;;;;;;;;5.69;76.41;102541.13;4969826;28;19929;-54
2023/01/31 00:26:39;;;;;;;;;;;;;;;5.69;76.52;102538.56;4978291;28;19922;-51
2023/01/31 00:29:04;;;;;;;;;;;;;;;5.68;76.50;102549.56;4969126;28;20353;-54
2023/01/31 00:31:31;;;;;;;;;;;;;;;5.70;76.52;102557.31;4966519;28;19928;-50
2023/01/31 00:33:56;;;;;;;;;;;;;;;5.69;76.45;102553.88;4967117;28;19973;-53
2023/01/31 00:36:23;;;;;;;;;;;;;;;5.69;76.31;102553.00;4969930;28;19930;-53
2023/01/31 00:38:49;;;;;;;;;;;;;;;5.68;76.37;102547.00;4967328;28;20329;-54
2023/01/31 00:41:15;;;;;;;;;;;;;;;5.69;76.13;102542.78;4965681;28;19925;-53
2023/01/31 00:43:40;;;;;;;;;;;;;;;5.68;76.06;102533.38;4969318;28;19972;-54
2023/01/31 00:46:05;;;;;;;;;;;;;;;5.67;76.12;102523.94;4965307;28;19930;-48
2023/01/31 00:48:31;;;;;;;;;;;;;;;5.66;75.93;102528.16;4971653;28;19930;-54
2023/01/31 00:50:56;;;;;;;;;;;;;;;5.64;76.10;102525.50;4967696;28;19926;-53
2023/01/31 00:53:24;;;;;;;;;;;;;;;5.64;76.03;102530.59;4977901;28;19980;-50
2023/01/31 00:55:50;;;;;;;;;;;;;;;5.63;75.96;102521.13;4972409;28;20302;-54
2023/01/31 00:58:16;;;;;;;;;;;;;;;5.62;76.33;102521.03;4973695;28;19923;-51
2023/01/31 01:00:41;;;;;;;;;;;;;;;5.59;75.97;102521.72;4968173;28;20349;-52
2023/01/31 01:03:06;;;;;;;;;;;;;;;5.58;76.15;102526.66;4973727;28;20336;-53
2023/01/31 01:05:32;;;;;;;;;;;;;;;5.57;76.42;102525.78;4971074;28;20804;-54
2023/01/31 01:07:57;;;;;;;;;;;;;;;5.56;76.24;102516.34;4971672;28;20481;-54
2023/01/31 01:10:22;;;;;;;;;;;;;;;5.56;76.37;102515.47;4970404;28;19962;-53
2023/01/31 01:12:47;;;;;;;;;;;;;;;5.56;76.35;102511.25;4964889;28;20020;-53
2023/01/31 01:15:13;;;;;;;;;;;;;;;5.56;76.46;102502.72;4973570;28;19987;-53
2023/01/31 01:17:38;;;;;;;;;;;;;;;5.55;76.21;102500.94;4969402;28;19925;-53
2023/01/31 01:20:04;;;;;;;;;;;;;;;5.54;76.59;102492.41;4973365;28;20602;-53
2023/01/31 01:22:29;;;;;;;;;;;;;;;5.53;76.61;102492.28;4971554;28;19922;-54
2023/01/31 01:24:55;;;;;;;;;;;;;;;5.50;76.65;102482.72;4978218;28;19934;-53
2023/01/31 01:27:20;;;;;;;;;;;;;;;5.49;76.68;102483.50;4967657;28;20012;-54
2023/01/31 01:29:45;;;;;;;;;;;;;;;5.48;76.77;102488.50;4964173;28;19953;-53
2023/01/31 01:32:10;;;;;;;;;;;;;;;5.47;76.73;102479.97;4971546;28;20022;-50
2023/01/31 01:34:36;;;;;;;;;;;;;;;5.46;76.82;102472.19;4987481;28;19949;-53
2023/01/31 01:37:08;;;;;;;;;;;;;;;5.46;76.89;102473.09;4968230;28;19932;-54
2023/01/31 01:39:34;;;;;;;;;;;;;;;5.44;77.12;102476.28;4964025;28;19926;-53
2023/01/31 01:41:59;;;;;;;;;;;;;;;5.45;77.08;102484.03;4970829;28;20375;-51
2023/01/31 01:44:42;;;;;;;;;;;;;;;5.46;76.88;102477.28;4967242;28;19934;-54
2023/01/31 01:47:29;;;;;;;;;;;;;;;5.45;77.12;102476.41;4978376;28;19916;-54
2023/01/31 01:49:58;;;;;;;;;;;;;;;5.44;77.07;102477.19;4976426;28;19922;-54
2023/01/31 01:52:25;;;;;;;;;;;;;;;5.45;77.03;102478.94;4967046;28;20480;-52
2023/01/31 01:54:56;;;;;;;;;;;;;;;5.44;77.26;102473.75;4968328;28;19926;-51
2023/01/31 01:57:25;;;;;;;;;;;;;;;5.46;77.08;102473.09;4966742;28;20040;-50
2023/01/31 01:59:56;;;;;;;;;;;;;;;5.43;77.09;102471.97;4969539;28;20421;-54
2023/01/31 02:02:21;;;;;;;;;;;;;;;5.42;77.54;102471.09;4972142;28;19922;-53
2023/01/31 02:04:48;;;;;;;;;;;;;;;5.42;77.19;102467.66;4968637;28;19935;-50
2023/01/31 02:07:13;;;;;;;;;;;;;;;5.41;77.28;102476.06;4975421;28;19926;-52
2023/01/31 02:09:46;;;;;;;;;;;;;;;5.41;76.93;102474.41;4965869;28;19929;-54
2023/01/31 02:12:12;;;;;;;;;;;;;;;5.41;77.09;102478.63;4977624;28;20590;-53
2023/01/31 02:14:37;;;;;;;;;;;;;;;5.41;77.10;102478.63;4967259;28;19931;-50
2023/01/31 02:17:02;;;;;;;;;;;;;;;5.37;77.12;102475.84;4964326;28;19964;-52
2023/01/31 02:19:34;;;;;;;;;;;;;;;5.37;77.38;102477.50;4968847;28;19917;-51
2023/01/31 02:22:05;;;;;;;;;;;;;;;5.36;77.35;102488.47;4967852;28;19978;-54
2023/01/31 02:24:46;;;;;;;;;;;;;;;5.37;77.33;102492.81;4965294;28;20008;-54
2023/01/31 02:27:27;;;;;;;;;;;;;;;5.34;77.44;102492.59;4963872;28;19930;-54
2023/01/31 02:29:53;;;;;;;;;;;;;;;5.33;77.89;102501.88;4966035;28;20386;-52
2023/01/31 02:32:18;;;;;;;;;;;;;;;5.33;78.39;102496.78;4973585;28;19929;-53
2023/01/31 02:34:53;;;;;;;;;;;;;;;5.35;78.25;102492.69;4967562;28;20320;-54
2023/01/31 02:37:38;;;;;;;;;;;;;;;5.38;78.38;102492.91;4969105;28;19970;-53
2023/01/31 02:40:16;;;;;;;;;;;;;;;5.37;78.47;102480.06;4976060;28;19920;-53
2023/01/31 02:42:53;;;;;;;;;;;;;;;5.37;78.47;102477.50;4967416;28;19945;-53
2023/01/31 02:45:21;;;;;;;;;;;;;;;5.38;78.53;102477.59;4972709;28;20394;-47
2023/01/31 02:48:06;;;;;;;;;;;;;;;5.39;78.49;102469.16;4973208;28;20267;-50
2023/01/31 02:50:37;;;;;;;;;;;;;;;5.39;78.67;102469.16;4965344;28;20363;-54
2023/01/31 02:53:20;;;;;;;;;;;;;;;5.40;78.83;102475.19;4977084;28;19918;-53
2023/01/31 02:56:16;;;;;;;;;;;;;;;5.41;78.82;102476.06;4974075;28;20357;-54
2023/01/31 02:58:54;;;;;;;;;;;;;;;5.41;79.40;102479.50;4967705;28;19925;-53
2023/01/31 03:01:26;;;;;;;;;;;;;;;5.42;79.25;102477.84;4963832;28;19993;-53
2023/01/31 03:03:52;;;;;;;;;;;;;;;5.39;79.39;102469.16;4974582;28;23072;-50
2023/01/31 03:06:23;;;;;;;;;;;;;;;5.42;79.45;102468.53;4975241;28;19930;-54
2023/01/31 03:08:51;;;;;;;;;;;;;;;5.43;79.22;102466.88;4964811;28;20046;-53
2023/01/31 03:11:16;;;;;;;;;;;;;;;5.41;79.29;102466.75;4967564;28;20386;-53
2023/01/31 03:13:42;;;;;;;;;;;;;;;5.38;79.48;102469.94;4972414;28;19945;-47
2023/01/31 03:19:12;;;;;;;;;;;;;;;5.35;79.59;102467.19;4967398;28;19964;-54
2023/01/31 03:21:54;;;;;;;;;;;;;;;5.33;79.35;102470.38;4970061;28;19919;-54
2023/01/31 03:24:20;;;;;;;;;;;;;;;5.30;79.71;102476.16;4965230;28;20343;-53
2023/01/31 03:26:46;;;;;;;;;;;;;;;5.28;79.82;102466.63;4963878;28;19926;-53
2023/01/31 03:29:13;;;;;;;;;;;;;;;5.26;80.27;102453.72;4965042;28;20329;-49
2023/01/31 03:31:41;;;;;;;;;;;;;;;5.26;80.12;102463.94;4966145;28;19926;-52
2023/01/31 03:34:10;;;;;;;;;;;;;;;5.28;79.95;102461.53;4973465;28;19944;-54
2023/01/31 03:36:54;;;;;;;;;;;;;;;5.28;80.09;102459.84;4964604;28;20386;-53
2023/01/31 03:39:28;;;;;;;;;;;;;;;5.28;80.12;102457.31;4966650;28;20356;-52
2023/01/31 03:42:12;;;;;;;;;;;;;;;5.27;79.89;102458.06;4968094;28;19929;-53
2023/01/31 03:44:37;;;;;;;;;;;;;;;5.27;80.07;102450.41;4963766;28;19949;-54
2023/01/31 03:47:08;;;;;;;;;;;;;;;5.27;80.18;102442.75;4973743;28;20784;-54
2023/01/31 03:49:33;;;;;;;;;;;;;;;5.27;80.05;102436.75;4976363;28;19922;-53
2023/01/31 03:52:06;;;;;;;;;;;;;;;5.27;80.20;102435.09;4971454;28;19930;-53
2023/01/31 03:54:35;;;;;;;;;;;;;;;5.27;80.27;102439.31;4973214;28;19926;-50
2023/01/31 03:57:03;;;;;;;;;;;;;;;5.25;80.45;102425.56;4974628;28;19918;-54
2023/01/31 03:59:31;;;;;;;;;;;;;;;5.27;80.65;102434.22;4968013;28;19918;-54
2023/01/31 04:01:58;;;;;;;;;;;;;;;5.24;80.52;102434.88;4972069;28;19933;-51
2023/01/31 04:04:53;;;;;;;;;;;;;;;5.27;80.88;102431.66;4975384;28;20387;-51
2023/01/31 04:07:19;;;;;;;;;;;;;;;5.26;80.95;102429.91;4992552;28;20833;-53
2023/01/31 04:09:44;;;;;;;;;;;;;;;5.27;80.89;102429.13;4971336;28;19933;-54
2023/01/31 04:12:11;;;;;;;;;;;;;;;5.26;81.04;102424.78;4972010;28;19932;-54
2023/01/31 04:14:36;;;;;;;;;;;;;;;5.28;81.40;102430.91;4980177;28;19922;-54
2023/01/31 04:17:02;;;;;;;;;;;;;;;5.26;81.67;102420.56;4967953;28;20322;-53
2023/01/31 04:19:27;;;;;;;;;;;;;;;5.26;81.48;102417.13;4967318;28;19926;-52
2023/01/31 04:21:52;;;;;;;;;;;;;;;5.24;81.67;102419.59;4975604;28;19968;-48
2023/01/31 04:24:17;;;;;;;;;;;;;;;5.25;81.86;102420.47;4962605;28;19938;-54
2023/01/31 04:26:43;;;;;;;;;;;;;;;5.25;82.29;102416.25;4977255;28;19922;-54
2023/01/31 04:29:08;;;;;;;;;;;;;;;5.24;82.16;102418.69;4970360;28;19922;-52
2023/01/31 04:31:33;;;;;;;;;;;;;;;5.25;82.08;102429.00;4972959;28;19930;-53
2023/01/31 04:33:58;;;;;;;;;;;;;;;5.25;82.29;102415.38;4976345;28;20008;-47
2023/01/31 04:36:24;;;;;;;;;;;;;;;5.23;82.41;102417.81;4975896;28;19934;-53
2023/01/31 04:38:49;;;;;;;;;;;;;;;5.22;82.16;102418.59;4968150;28;19922;-53
2023/01/31 04:41:14;;;;;;;;;;;;;;;5.24;81.98;102427.25;4967500;28;19922;-53
2023/01/31 04:43:40;;;;;;;;;;;;;;;5.22;82.24;102421.16;4974336;28;20009;-51
2023/01/31 04:46:05;;;;;;;;;;;;;;;5.22;81.81;102413.50;4967479;28;19950;-53
2023/01/31 04:48:30;;;;;;;;;;;;;;;5.22;82.09;102407.50;4966051;28;19980;-48
2023/01/31 04:50:55;;;;;;;;;;;;;;;5.22;81.70;102404.97;4965958;28;19977;-53
2023/01/31 04:53:21;;;;;;;;;;;;;;;5.21;81.57;102393.84;4971262;28;20005;-53
2023/01/31 04:55:46;;;;;;;;;;;;;;;5.21;81.59;102392.97;4969871;28;19940;-53
2023/01/31 04:58:11;;;;;;;;;;;;;;;5.22;82.01;102382.00;4971594;28;19975;-54
2023/01/31 05:00:37;;;;;;;;;;;;;;;5.21;82.08;102383.63;4973471;28;19919;-53
2023/01/31 05:03:02;;;;;;;;;;;;;;;5.21;82.08;102377.66;4969657;28;19924;-52
2023/01/31 05:05:27;;;;;;;;;;;;;;;5.19;82.39;102380.09;4982131;28;20434;-53
2023/01/31 05:07:52;;;;;;;;;;;;;;;5.19;82.50;102380.09;4972514;28;20422;-50
2023/01/31 05:10:18;;;;;;;;;;;;;;;5.19;83.14;102379.22;4975363;28;19930;-53
2023/01/31 05:12:44;;;;;;;;;;;;;;;5.17;83.39;102378.22;4978992;28;19922;-54
2023/01/31 05:15:10;;;;;;;;;;;;;;;5.15;83.14;102382.31;4980264;28;20551;-51
2023/01/31 05:17:36;;;;;;;;;;;;;;;5.13;83.44;102376.22;4971255;28;19930;-54
2023/01/31 05:20:01;;;;;;;;;;;;;;;5.13;83.69;102371.13;4973922;28;20372;-53
2023/01/31 05:22:26;;;;;;;;;;;;;;;5.10;83.81;102377.78;4978093;28;19922;-53
2023/01/31 05:24:52;;;;;;;;;;;;;;;5.11;83.70;102378.66;4967403;28;19944;-52
2023/01/31 05:27:17;;;;;;;;;;;;;;;5.11;83.86;102376.09;4968089;28;20039;-54
2023/01/31 05:29:43;;;;;;;;;;;;;;;5.11;83.80;102382.09;4964870;28;19995;-53
2023/01/31 05:32:08;;;;;;;;;;;;;;;5.12;83.92;102385.53;4973198;28;19940;-53
2023/01/31 05:34:34;;;;;;;;;;;;;;;5.14;84.08;102372.88;4975635;28;20405;-53
2023/01/31 05:36:59;;;;;;;;;;;;;;;5.14;83.90;102367.78;4976301;28;20403;-54
2023/01/31 05:39:25;;;;;;;;;;;;;;;5.13;84.17;102360.91;4966585;28;19965;-54
2023/01/31 05:41:51;;;;;;;;;;;;;;;5.13;84.14;102355.81;4971640;28;19927;-53
2023/01/31 05:44:16;;;;;;;;;;;;;;;5.13;84.06;102366.00;4976857;28;19933;-53
2023/01/31 05:46:42;;;;;;;;;;;;;;;5.11;84.18;102350.59;4966602;28;19922;-53
2023/01/31 05:49:07;;;;;;;;;;;;;;;5.12;84.12;102352.38;4987172;28;19931;-52
2023/01/31 05:51:32;;;;;;;;;;;;;;;5.14;83.84;102347.38;4978609;28;19945;-54
2023/01/31 05:53:57;;;;;;;;;;;;;;;5.15;84.17;102351.69;4971274;28;19930;-51
2023/01/31 05:56:23;;;;;;;;;;;;;;;5.13;84.24;102349.06;4974649;28;19918;-53
2023/01/31 05:58:49;;;;;;;;;;;;;;;5.13;83.91;102359.25;4975250;28;20313;-54
2023/01/31 06:01:18;;;;;;;;;;;;;;;5.13;84.11;102358.38;4971353;28;19928;-53
2023/01/31 06:03:44;;;;;;;;;;;;;;;5.16;84.12;102358.56;4965357;28;19919;-54
2023/01/31 06:06:09;;;;;;;;;;;;;;;5.16;83.74;102367.16;4974673;28;19945;-51
2023/01/31 06:08:34;;;;;;;;;;;;;;;5.17;83.75;102365.47;4968880;28;20019;-54
2023/01/31 06:11:01;;;;;;;;;;;;;;;5.17;83.86;102358.72;4974174;28;19933;-54
2023/01/31 06:13:26;;;;;;;;;;;;;;;5.20;83.65;102356.38;4964058;28;20302;-54
2023/01/31 06:15:51;;;;;;;;;;;;;;;5.22;83.56;102352.28;4974228;28;19924;-54
2023/01/31 06:18:16;;;;;;;;;;;;;;;5.23;83.75;102356.59;4973548;28;19926;-50
2023/01/31 06:20:42;;;;;;;;;;;;;;;5.24;83.68;102350.72;4989444;28;19922;-53
2023/01/31 06:23:07;;;;;;;;;;;;;;;5.23;83.99;102346.41;4968238;28;19973;-54
2023/01/31 06:25:32;;;;;;;;;;;;;;;5.23;83.91;102360.81;4979988;28;19934;-58
2023/01/31 06:27:57;;;;;;;;;;;;;;;5.23;83.74;102351.50;4966271;28;20017;-53
2023/01/31 06:30:22;;;;;;;;;;;;;;;5.23;83.74;102348.97;4970740;28;20021;-54
2023/01/31 06:32:48;;;;;;;;;;;;;;;5.24;83.85;102347.28;4970040;28;20017;-51
2023/01/31 06:35:13;;;;;;;;;;;;;;;5.25;83.62;102344.84;4985882;28;19973;-51
2023/01/31 06:37:39;;;;;;;;;;;;;;;5.27;83.82;102345.84;4967317;28;20409;-54
2023/01/31 06:40:04;;;;;;;;;;;;;;;5.27;83.88;102343.28;4974189;28;19922;-54
2023/01/31 06:42:30;;;;;;;;;;;;;;;5.26;83.76;102336.41;4976312;28;19926;-54
2023/01/31 06:44:55;;;;;;;;;;;;;;;5.28;83.69;102331.44;4965236;28;19937;-51
2023/01/31 06:47:20;;;;;;;;;;;;;;;5.28;83.66;102324.69;4969952;28;20397;-52
2023/01/31 06:49:45;;;;;;;;;;;;;;;5.28;83.58;102324.69;4967999;28;20465;-58
2023/01/31 06:52:10;;;;;;;;;;;;;;;5.28;83.81;102322.13;4974980;28;20453;-54
2023/01/31 06:54:36;;;;;;;;;;;;;;;5.28;83.70;102326.34;4969235;28;19928;-53
2023/01/31 06:57:01;;;;;;;;;;;;;;;5.28;84.29;102324.69;4977893;28;19926;-53
2023/01/31 06:59:26;;;;;;;;;;;;;;;5.27;83.82;102322.88;4970025;28;19929;-54
2023/01/31 07:01:51;;;;;;;;;;;;;;;5.28;84.01;102337.44;4969351;28;19921;-51
2023/01/31 07:04:17;;;;;;;;;;;;;;;5.27;84.12;102329.66;4961753;28;19936;-53
2023/01/31 07:06:42;;;;;;;;;;;;;;;5.25;84.35;102319.34;4971687;28;20063;-52
2023/01/31 07:09:07;;;;;;;;;;;;;;;5.27;84.33;102316.91;4968176;28;19926;-53
2023/01/31 07:11:32;;;;;;;;;;;;;;;5.27;84.42;102314.34;4963818;28;20371;-53
2023/01/31 07:13:58;;;;;;;;;;;;;;;5.28;84.31;102314.47;4973750;28;20298;-51
2023/01/31 07:16:24;;;;;;;;;;;;;;;5.31;84.51;102318.91;4968533;28;20047;-52
2023/01/31 07:18:52;;;;;;;;;;;;;;;5.34;84.33;102320.03;4970093;28;19928;-54
2023/01/31 07:21:18;;;;;;;;;;;;;;;5.33;84.64;102310.56;4971389;28;19922;-53
2023/01/31 07:23:44;;;;;;;;;;;;;;;5.33;84.64;102305.47;4996228;28;19925;-53
2023/01/31 07:26:09;;;;;;;;;;;;;;;5.35;84.83;102305.59;4979771;28;19961;-54
2023/01/31 07:28:35;;;;;;;;;;;;;;;5.35;84.67;102295.41;4966362;28;20023;-51
2023/01/31 07:31:09;;;;;;;;;;;;;;;5.34;84.90;102294.53;4965735;28;19945;-53
2023/01/31 07:33:35;;;;;;;;;;;;;;;5.35;85.09;102301.38;4964671;28;19927;-52
2023/01/31 07:36:02;;;;;;;;;;;;;;;5.35;85.08;102303.94;4967048;28;19945;-54
2023/01/31 07:38:27;;;;;;;;;;;;;;;5.36;84.89;102308.25;4966319;28;20394;-54
2023/01/31 07:40:52;;;;;;;;;;;;;;;5.39;84.98;102303.38;4967454;28;19952;-52
2023/01/31 07:43:17;;;;;;;;;;;;;;;5.42;85.22;102306.94;4970648;28;20071;-54
2023/01/31 07:45:43;;;;;;;;;;;;;;;5.41;85.16;102302.63;4968276;28;19972;-54
2023/01/31 07:48:08;;;;;;;;;;;;;;;5.41;85.02;102288.19;4965594;28;20314;-47
2023/01/31 07:50:33;;;;;;;;;;;;;;;5.43;85.18;102278.97;4970523;28;19966;-48
2023/01/31 07:52:58;;;;;;;;;;;;;;;5.46;85.15;102288.50;4975379;28;19926;-52
2023/01/31 07:55:24;;;;;;;;;;;;;;;5.46;85.05;102283.38;4966526;28;19983;-53
2023/01/31 07:57:49;;;;;;;;;;;;;;;5.47;85.05;102275.88;4967084;28;19950;-53
2023/01/31 08:03:31;;;;;;;;;;;;;;;5.47;85.10;102282.63;4969869;28;19929;-53
2023/01/31 08:03:32;;;;;;;;;;;;;;;5.48;85.06;102287.84;4964125;28;20577;-50
2023/01/31 08:05:58;;;;;;;;;;;;;;;5.49;85.30;102276.84;4964896;28;20394;-54
2023/01/31 08:08:23;;;;;;;;;;;;;;;5.49;85.15;102276.84;4970563;28;20009;-53
2023/01/31 08:10:49;;;;;;;;;;;;;;;5.49;85.09;102264.09;4967968;28;20036;-54
2023/01/31 08:13:14;;;;;;;;;;;;;;;5.51;85.29;102266.75;4975515;28;21821;-51
2023/01/31 08:15:39;;;;;;;;;;;;;;;5.51;85.44;102267.63;4962243;28;19961;-53
2023/01/31 08:18:04;;;;;;;;;;;;;;;5.50;85.52;102273.53;4967917;28;19926;-53
2023/01/31 08:20:30;;;;;;;;;;;;;;;5.52;85.31;102265.97;4975631;28;20478;-54
2023/01/31 08:22:57;;;;;;;;;;;;;;;5.53;85.18;102266.09;4969462;28;19923;-54
2023/01/31 08:25:22;;;;;;;;;;;;;;;5.56;85.62;102256.09;4966799;28;19969;-54
2023/01/31 08:27:48;;;;;;;;;;;;;;;5.57;85.29;102260.41;4965642;28;19954;-54
2023/01/31 08:30:13;;;;;;;;;;;;;;;5.58;85.51;102258.75;4971520;28;20305;-52
2023/01/31 08:32:38;;;;;;;;;;;;;;;5.58;85.46;102252.00;4965725;28;19949;-52
2023/01/31 08:35:04;;;;;;;;;;;;;;;5.59;85.72;102252.88;4975579;28;20136;-50
2023/01/31 08:37:30;;;;;;;;;;;;;;;5.60;85.52;102241.91;4972750;28;19932;-53
2023/01/31 08:39:55;;;;;;;;;;;;;;;5.60;85.43;102231.69;4969767;28;20010;-54
2023/01/31 08:42:20;;;;;;;;;;;;;;;5.63;85.66;102237.00;4970457;28;19990;-54
2023/01/31 08:44:46;;;;;;;;;;;;;;;5.63;85.56;102239.53;4973721;28;20021;-53
2023/01/31 08:47:11;;;;;;;;;;;;;;;5.65;85.39;102238.88;4971016;28;20021;-54
2023/01/31 08:49:36;;;;;;;;;;;;;;;5.67;85.54;102230.44;4970927;28;19958;-53
2023/01/31 08:52:01;;;;;;;;;;;;;;;5.69;85.62;102221.22;4975410;28;19952;-54
2023/01/31 08:54:26;;;;;;;;;;;;;;;5.71;85.57;102212.91;4967870;28;20397;-50
2023/01/31 08:56:52;;;;;;;;;;;;;;;5.72;85.46;102217.22;4970753;28;19922;-54
2023/01/31 08:59:17;;;;;;;;;;;;;;;5.75;85.69;102221.66;4974289;28;19926;-54
2023/01/31 09:01:45;;;;;;;;;;;;;;;5.77;85.76;102215.88;4967335;28;19926;-53
2023/01/31 09:04:10;;;;;;;;;;;;;;;5.78;85.61;102212.56;4981397;28;19929;-54
2023/01/31 09:06:35;;;;;;;;;;;;;;;5.81;85.82;102212.75;4975523;28;20640;-52
2023/01/31 09:09:01;;;;;;;;;;;;;;;5.82;85.85;102218.72;4969096;28;20004;-54
2023/01/31 09:11:27;;;;;;;;;;;;;;;5.84;85.99;102212.09;4971217;28;20076;-54
2023/01/31 09:13:52;;;;;;;;;;;;;;;5.86;86.19;102205.41;4969209;28;20312;-53
2023/01/31 09:16:18;;;;;;;;;;;;;;;5.87;86.05;102205.50;4969771;28;20021;-53
2023/01/31 09:18:43;;;;;;;;;;;;;;;5.89;86.13;102210.75;4971781;28;20004;-52
2023/01/31 09:21:10;;;;;;;;;;;;;;;5.93;86.41;102192.31;4970555;28;19925;-52
2023/01/31 09:23:36;;;;;;;;;;;;;;;5.94;86.51;102181.31;4967431;28;19930;-48
2023/01/31 09:26:02;;;;;;;;;;;;;;;6.01;86.71;102187.75;4966707;28;19918;-53
2023/01/31 09:28:27;;;;;;;;;;;;;;;6.06;86.85;102188.91;4970301;28;20403;-52
2023/01/31 09:30:53;;;;;;;;;;;;;;;6.12;87.08;102207.19;4977448;28;19991;-53
2023/01/31 09:33:18;;;;;;;;;;;;;;;6.17;86.84;102200.75;4969341;28;19932;-54
2023/01/31 09:35:53;;;;;;;;;;;;;;;6.23;86.97;102193.47;4973527;28;19971;-51
2023/01/31 09:38:18;;;;;;;;;;;;;;;6.31;86.70;102211.88;4970611;28;20290;-52
2023/01/31 09:40:44;;;;;;;;;;;;;;;6.37;86.69;102207.16;4972012;28;19930;-54
2023/01/31 09:43:10;;;;;;;;;;;;;;;6.43;86.61;102198.25;4976606;28;20423;-54
2023/01/31 09:45:36;;;;;;;;;;;;;;;6.51;86.75;102193.66;4972925;28;19933;-54
2023/01/31 09:48:04;;;;;;;;;;;;;;;6.60;86.36;102195.91;4967920;28;19918;-54
2023/01/31 09:50:34;;;;;;;;;;;;;;;6.66;86.28;102203.97;4970601;28;19943;-53
2023/01/31 09:53:00;;;;;;;;;;;;;;;6.74;85.99;102194.28;4962798;28;19924;-52
2023/01/31 09:55:37;;;;;;;;;;;;;;;6.80;85.93;102194.66;4970835;28;20481;-54
2023/01/31 09:58:05;;;;;;;;;;;;;;;6.84;85.91;102188.94;4970814;28;19926;-51
2023/01/31 10:00:42;;;;;;;;;;;;;;;6.87;85.71;102196.81;4969605;28;19933;-54
2023/01/31 10:03:26;;;;;;;;;;;;;;;6.89;85.61;102190.13;4978528;28;19926;-53
2023/01/31 10:05:55;;;;;;;;;;;;;;;6.91;85.38;102178.31;4967486;28;19929;-54
2023/01/31 10:08:29;;;;;;;;;;;;;;;6.91;85.27;102178.31;4977035;28;19918;-53
2023/01/31 10:10:58;;;;;;;;;;;;;;;6.91;85.68;102174.09;4966002;28;20031;-52
2023/01/31 10:13:23;;;;;;;;;;;;;;;6.93;85.67;102167.41;4998038;28;19922;-54
2023/01/31 10:15:51;;;;;;;;;;;;;;;6.96;85.84;102165.03;5003398;28;19936;-54
2023/01/31 10:18:21;;;;;;;;;;;;;;;7.00;85.80;102168.69;4972210;28;20044;-54
2023/01/31 10:20:51;;;;;;;;;;;;;;;6.98;85.85;102173.72;4979378;28;19922;-54
2023/01/31 10:23:29;;;;;;;;;;;;;;;6.98;85.66;102177.94;4975104;28;19976;-53
2023/01/31 10:25:58;;;;;;;;;;;;;;;6.95;85.80;102186.28;4968787;28;19926;-54
2023/01/31 10:28:41;;;;;;;;;;;;;;;6.93;85.69;102185.31;4967594;28;19918;-51
2023/01/31 10:31:07;;;;;;;;;;;;;;;6.94;85.86;102193.88;4977711;28;20390;-51
2023/01/31 10:33:35;;;;;;;;;;;;;;;6.93;85.87;102187.88;4971193;28;19979;-54
2023/01/31 10:36:03;;;;;;;;;;;;;;;6.92;86.18;102190.34;4994998;28;19921;-54
2023/01/31 10:38:37;;;;;;;;;;;;;;;6.93;86.35;102194.66;4970710;28;20020;-54
2023/01/31 10:41:20;;;;;;;;;;;;;;;6.96;86.25;102185.50;4972177;28;19925;-51
2023/01/31 10:43:49;;;;;;;;;;;;;;;6.96;86.34;102182.94;4971749;28;19965;-52
2023/01/31 10:46:15;;;;;;;;;;;;;;;6.98;87.03;102181.38;4970400;28;20446;-53
2023/01/31 10:48:41;;;;;;;;;;;;;;;6.97;86.71;102182.16;4973417;28;19929;-53
2023/01/31 10:51:06;;;;;;;;;;;;;;;6.98;86.96;102186.50;4970359;28;20435;-53
2023/01/31 10:53:32;;;;;;;;;;;;;;;6.98;87.21;102168.59;4980511;28;19924;-52
2023/01/31 10:55:57;;;;;;;;;;;;;;;6.98;87.27;102170.28;4964376;28;20905;-54
2023/01/31 10:58:22;;;;;;;;;;;;;;;7.01;87.09;102161.91;4968864;28;20306;-54
2023/01/31 11:00:48;;;;;;;;;;;;;;;7.03;87.42;102170.53;4981344;28;19937;-53
2023/01/31 11:03:14;;;;;;;;;;;;;;;7.04;87.42;102162.97;4966319;28;19990;-52
2023/01/31 11:05:44;;;;;;;;;;;;;;;7.05;87.60;102161.31;4966842;28;21519;-53
2023/01/31 11:08:28;;;;;;;;;;;;;;;7.05;87.23;102153.63;4962686;28;19960;-53
2023/01/31 11:10:56;;;;;;;;;;;;;;;7.07;87.40;102159.72;4964835;28;20397;-54
2023/01/31 11:13:22;;;;;;;;;;;;;;;7.08;87.31;102149.56;4961858;28;19926;-53
2023/01/31 11:15:48;;;;;;;;;;;;;;;7.10;87.31;102142.91;4974711;28;19926;-53
2023/01/31 11:18:16;;;;;;;;;;;;;;;7.12;87.47;102137.88;4968818;28;19922;-54
2023/01/31 11:20:45;;;;;;;;;;;;;;;7.13;87.53;102127.72;4995698;28;19932;-52
2023/01/31 11:23:12;;;;;;;;;;;;;;;7.14;87.65;102114.16;4969212;28;20366;-53
2023/01/31 11:25:38;;;;;;;;;;;;;;;7.18;87.45;102125.47;4966977;28;19928;-53
2023/01/31 11:28:15;;;;;;;;;;;;;;;7.18;87.63;102128.03;4977684;28;19926;-53
2023/01/31 11:30:41;;;;;;;;;;;;;;;7.19;87.84;102120.44;4967734;28;19965;-51
2023/01/31 11:33:06;;;;;;;;;;;;;;;7.21;87.52;102130.75;4977726;28;19918;-52
2023/01/31 11:35:33;;;;;;;;;;;;;;;7.21;87.68;102126.53;4962225;28;19923;-50
2023/01/31 11:37:58;;;;;;;;;;;;;;;7.23;87.97;102134.31;4963112;28;19942;-52
2023/01/31 11:40:34;;;;;;;;;;;;;;;7.20;87.95;102126.44;4964212;28;19922;-53
2023/01/31 11:43:01;;;;;;;;;;;;;;;7.24;87.86;102133.53;4963852;28;19921;-53
2023/01/31 11:45:30;;;;;;;;;;;;;;;7.26;88.16;102126.81;4963034;28;20475;-51
2023/01/31 11:48:04;;;;;;;;;;;;;;;7.27;88.07;102115.78;4969188;28;19972;-53
2023/01/31 11:50:33;;;;;;;;;;;;;;;7.26;87.85;102124.25;4975699;28;20298;-54
2023/01/31 11:53:00;;;;;;;;;;;;;;;7.26;88.13;102121.69;4965664;28;19924;-51
2023/01/31 11:55:26;;;;;;;;;;;;;;;7.28;88.15;102120.13;4973027;28;20377;-53
2023/01/31 11:57:56;;;;;;;;;;;;;;;7.30;88.21;102116.00;4965992;28;19933;-51
2023/01/31 12:00:26;;;;;;;;;;;;;;;7.31;88.20;102111.75;4965525;28;19925;-54
2023/01/31 12:03:14;;;;;;;;;;;;;;;7.31;88.27;102112.63;4970148;28;20376;-53
2023/01/31 12:05:43;;;;;;;;;;;;;;;7.34;88.39;102114.47;4964678;28;20392;-54
2023/01/31 12:08:29;;;;;;;;;;;;;;;7.35;88.60;102112.03;4970084;28;19918;-51
2023/01/31 12:10:54;;;;;;;;;;;;;;;7.38;88.57;102119.00;4967068;28;19933;-53
2023/01/31 12:13:21;;;;;;;;;;;;;;;7.39;89.00;102115.66;4979722;28;20315;-51
2023/01/31 12:15:57;;;;;;;;;;;;;;;7.40;88.74;102109.72;4975249;28;19984;-53
2023/01/31 12:18:28;;;;;;;;;;;;;;;7.41;88.98;102102.19;4978153;28;20405;-53
2023/01/31 12:21:05;;;;;;;;;;;;;;;7.44;89.57;102110.03;4983940;28;20496;-51
2023/01/31 12:23:37;;;;;;;;;;;;;;;7.46;89.81;102107.53;4970221;28;20083;-51
2023/01/31 12:26:02;;;;;;;;;;;;;;;7.48;91.03;102113.66;4967796;28;19926;-54
2023/01/31 12:28:30;;;;;;;;;;;;;;;7.46;91.11;102095.66;4974525;28;19925;-53
2023/01/31 12:30:56;;;;;;;;;;;;;;;7.46;91.74;102095.66;4966154;28;19937;-54
2023/01/31 12:33:39;;;;;;;;;;;;;;;7.47;92.81;102099.97;4970661;28;19922;-53
2023/01/31 12:36:04;;;;;;;;;;;;;;;7.47;92.51;102089.75;4977671;28;19926;-51
2023/01/31 12:38:33;;;;;;;;;;;;;;;7.48;92.30;102098.31;4975616;28;19964;-53
2023/01/31 12:41:04;;;;;;;;;;;;;;;7.48;94.42;102101.75;4969740;28;19926;-53
2023/01/31 12:43:41;;;;;;;;;;;;;;;7.49;94.15;102100.06;4972714;28;19929;-54
2023/01/31 12:46:16;;;;;;;;;;;;;;;7.47;94.11;102094.88;4971320;28;19918;-52
2023/01/31 12:49:05;;;;;;;;;;;;;;;7.48;94.99;102096.63;4973875;28;19968;-53
2023/01/31 12:51:33;;;;;;;;;;;;;;;7.47;94.79;102092.31;4971509;28;20445;-53
2023/01/31 12:54:04;;;;;;;;;;;;;;;7.49;94.99;102094.94;4968779;28;19940;-53